createdAt,value
2019-02-27T00:01:55.264Z,89.80
2019-02-27T00:03:56.968Z,90.30
2019-02-27T00:05:58.669Z,92.50
2019-02-27T00:08:00.381Z,92.60
2019-02-27T00:10:21.842Z,92.20
2019-02-27T00:12:23.541Z,93.30
2019-02-27T00:14:25.286Z,92.10
2019-02-27T00:16:27.085Z,91.20
2019-02-27T00:18:28.804Z,91.40
2019-02-27T00:20:30.509Z,89.90
2019-02-27T00:22:32.218Z,89.50
2019-02-27T00:24:33.919Z,89.40
2019-02-27T00:26:35.645Z,89.30
2019-02-27T00:28:37.356Z,89.70
2019-02-27T00:30:39.061Z,89.70
2019-02-27T00:32:40.809Z,89.90
2019-02-27T00:34:42.533Z,89.50
2019-02-27T00:36:45.180Z,89.50
2019-02-27T00:38:47.544Z,89.90
2019-02-27T00:40:49.361Z,89.90
2019-02-27T00:42:54.042Z,89.50
2019-02-27T00:44:54.701Z,89.70
2019-02-27T00:46:56.405Z,90.00
2019-02-27T00:48:59.313Z,89.80
2019-02-27T00:51:01.709Z,90.50
2019-02-27T00:53:03.575Z,91.90
2019-02-27T00:55:05.364Z,92.50
2019-02-27T00:57:07.204Z,92.80
2019-02-27T00:59:08.902Z,92.90
2019-02-27T01:01:12.778Z,92.70
2019-02-27T01:03:14.444Z,93.10
2019-02-27T01:05:16.242Z,93.40
2019-02-27T01:07:20.843Z,93.90
2019-02-27T01:09:22.049Z,94.30
2019-02-27T01:11:23.840Z,94.80
2019-02-27T01:13:25.533Z,95.30
2019-02-27T01:15:27.458Z,96.00
2019-02-27T01:17:29.153Z,96.50
2019-02-27T01:19:30.853Z,96.90
2019-02-27T01:21:32.685Z,97.10
2019-02-27T01:23:34.386Z,97.50
2019-02-27T01:25:36.104Z,97.70
2019-02-27T01:27:38.646Z,97.50
2019-02-27T01:29:40.652Z,98.00
2019-02-27T01:31:42.350Z,98.30
2019-02-27T01:33:44.094Z,98.10
2019-02-27T01:35:45.794Z,97.50
2019-02-27T01:37:47.589Z,97.20
2019-02-27T01:39:49.342Z,97.00
2019-02-27T01:41:51.040Z,96.40
2019-02-27T01:43:52.720Z,96.30
2019-02-27T01:45:55.033Z,95.50
2019-02-27T01:47:56.944Z,94.60
2019-02-27T01:49:58.666Z,93.70
2019-02-27T01:52:02.082Z,92.90
2019-02-27T01:54:03.957Z,92.50
2019-02-27T01:56:05.667Z,92.00
2019-02-27T01:58:09.548Z,90.80
2019-02-27T02:00:11.185Z,90.00
2019-02-27T02:02:12.936Z,89.70
2019-02-27T02:04:14.682Z,89.70
2019-02-27T02:06:16.477Z,89.80
2019-02-27T02:08:18.181Z,89.50
2019-02-27T02:10:19.994Z,89.70
2019-02-27T02:12:25.347Z,89.50
2019-02-27T02:14:41.342Z,89.20
2019-02-27T02:16:59.701Z,89.30
2019-02-27T02:19:19.002Z,89.00
2019-02-27T02:21:50.376Z,88.70
2019-02-27T02:24:20.949Z,89.30
2019-02-27T02:26:38.349Z,89.50
2019-02-27T02:29:11.965Z,89.90
2019-02-27T02:31:47.696Z,90.20
2019-02-27T02:34:21.421Z,90.50
2019-02-27T02:36:34.825Z,90.60
2019-02-27T02:38:51.218Z,90.60
2019-02-27T02:41:47.893Z,90.90
2019-02-27T02:44:21.061Z,91.30
2019-02-27T02:46:55.799Z,91.70
2019-02-27T02:49:29.566Z,91.80
2019-02-27T02:51:42.077Z,91.80
2019-02-27T02:54:06.855Z,92.10
2019-02-27T02:56:27.904Z,91.70
2019-02-27T02:58:52.540Z,91.80
2019-02-27T03:01:54.542Z,92.00
2019-02-27T03:04:30.194Z,92.30
2019-02-27T03:06:42.679Z,92.60
2019-02-27T03:09:19.244Z,92.90
2019-02-27T03:11:40.478Z,93.40
2019-02-27T03:14:25.895Z,94.20
2019-02-27T03:16:42.360Z,94.60
2019-02-27T03:19:20.088Z,94.70
2019-02-27T03:21:50.503Z,95.00
2019-02-27T03:24:34.738Z,94.90
2019-02-27T03:26:53.269Z,94.50
2019-02-27T03:29:29.242Z,93.80
2019-02-27T03:32:02.872Z,94.20
2019-02-27T03:34:33.031Z,95.20
2019-02-27T03:37:00.914Z,94.80
2019-02-27T03:39:48.501Z,93.80
2019-02-27T03:42:14.293Z,93.30
2019-02-27T03:44:28.630Z,92.70
2019-02-27T03:46:57.815Z,92.70
2019-02-27T03:49:24.852Z,93.00
2019-02-27T03:52:04.981Z,94.00
2019-02-27T03:54:31.844Z,95.10
2019-02-27T03:56:45.995Z,95.80
2019-02-27T03:59:29.177Z,95.90
2019-02-27T04:01:49.013Z,95.70
2019-02-27T04:04:17.515Z,95.20
2019-02-27T04:06:26.508Z,94.80
2019-02-27T04:08:54.785Z,95.10
2019-02-27T04:10:56.456Z,95.80
2019-02-27T04:12:58.162Z,96.50
2019-02-27T04:15:00.008Z,96.80
2019-02-27T04:17:05.496Z,97.00
2019-02-27T04:19:05.880Z,96.70
2019-02-27T04:21:07.676Z,96.10
2019-02-27T04:23:12.465Z,95.80
2019-02-27T04:25:12.984Z,95.70
2019-02-27T04:27:20.101Z,95.60
2019-02-27T04:29:18.297Z,95.60
2019-02-27T04:31:19.994Z,95.80
2019-02-27T04:33:23.240Z,95.10
2019-02-27T04:35:25.441Z,95.90
2019-02-27T04:37:27.151Z,96.10
2019-02-27T04:39:28.853Z,95.90
2019-02-27T04:41:30.566Z,96.00
2019-02-27T04:43:32.791Z,95.60
2019-02-27T04:45:34.550Z,95.60
2019-02-27T04:47:36.255Z,96.10
2019-02-27T04:49:38.433Z,96.60
2019-02-27T04:51:40.378Z,96.90
2019-02-27T04:53:42.084Z,97.30
2019-02-27T04:55:43.792Z,97.70
2019-02-27T04:57:45.495Z,97.30
2019-02-27T04:59:49.612Z,97.20
2019-02-27T05:01:50.809Z,97.30
2019-02-27T05:03:52.506Z,97.80
2019-02-27T05:06:14.565Z,98.20
2019-02-27T05:08:16.997Z,98.30
2019-02-27T05:10:18.709Z,98.30
2019-02-27T05:12:20.512Z,98.30
2019-02-27T05:14:24.747Z,98.30
2019-02-27T05:16:25.928Z,98.30
2019-02-27T05:18:29.478Z,98.30
2019-02-27T05:20:31.851Z,98.30
2019-02-27T05:22:33.565Z,98.30
2019-02-27T05:24:35.281Z,98.30
2019-02-27T05:26:37.004Z,98.30
2019-02-27T05:28:38.739Z,98.30
2019-02-27T05:30:44.724Z,98.30
2019-02-27T05:32:44.086Z,98.30
2019-02-27T05:34:49.423Z,98.30
2019-02-27T05:36:49.466Z,98.30
2019-02-27T05:38:51.310Z,98.30
2019-02-27T05:40:53.008Z,98.30
2019-02-27T05:42:54.745Z,98.30
2019-02-27T05:44:56.751Z,98.30
2019-02-27T05:46:58.549Z,98.30
2019-02-27T05:49:00.260Z,98.30
2019-02-27T05:51:01.981Z,98.30
2019-02-27T05:53:04.013Z,98.30
2019-02-27T05:55:07.088Z,98.30
2019-02-27T05:57:08.889Z,98.30
2019-02-27T05:59:10.609Z,98.30
2019-02-27T06:01:12.455Z,98.30
2019-02-27T06:03:15.874Z,98.30
2019-02-27T06:05:17.889Z,98.30
2019-02-27T06:07:19.666Z,98.30
2019-02-27T06:09:22.589Z,98.30
2019-02-27T06:11:24.309Z,98.30
2019-02-27T06:13:26.159Z,98.30
2019-02-27T06:15:28.593Z,98.30
2019-02-27T06:17:31.005Z,98.30
2019-02-27T06:19:33.601Z,98.30
2019-02-27T06:21:36.063Z,98.30
2019-02-27T06:23:38.510Z,98.30
2019-02-27T06:30:34.511Z,98.30
2019-02-27T06:32:36.285Z,98.30
2019-02-27T06:34:37.984Z,98.30
2019-02-27T06:36:42.893Z,98.30
2019-02-27T06:38:43.863Z,98.30
2019-02-27T06:40:45.570Z,98.30
2019-02-27T06:42:47.336Z,98.30
2019-02-27T06:44:49.143Z,98.30
2019-02-27T06:46:51.169Z,98.30
2019-02-27T06:48:56.433Z,98.30
2019-02-27T06:50:58.302Z,98.30
2019-02-27T06:53:01.737Z,98.30
2019-02-27T06:55:04.285Z,98.30
2019-02-27T06:57:07.784Z,98.30
2019-02-27T06:59:09.809Z,98.30
2019-02-27T07:01:13.256Z,98.30
2019-02-27T07:03:15.141Z,98.30
2019-02-27T07:05:17.044Z,98.30
2019-02-27T07:07:18.756Z,98.30
2019-02-27T07:09:20.457Z,98.30
2019-02-27T07:11:22.192Z,98.30
2019-02-27T07:13:26.844Z,98.30
2019-02-27T07:15:27.589Z,97.70
2019-02-27T07:17:31.865Z,97.60
2019-02-27T07:19:33.157Z,96.80
2019-02-27T07:21:34.974Z,96.40
2019-02-27T07:23:36.886Z,96.20
2019-02-27T07:25:42.007Z,95.90
2019-02-27T07:27:42.372Z,95.40
2019-02-27T07:29:44.067Z,94.30
2019-02-27T07:31:45.795Z,93.60
2019-02-27T07:33:47.489Z,92.70
2019-02-27T07:35:49.189Z,91.90
2019-02-27T07:37:50.893Z,91.30
2019-02-27T07:39:52.865Z,90.60
2019-02-27T07:41:54.561Z,89.20
2019-02-27T07:43:57.079Z,88.90
2019-02-27T07:45:58.806Z,88.80
2019-02-27T07:48:00.612Z,88.50
2019-02-27T07:50:02.743Z,88.90
2019-02-27T07:52:06.313Z,89.40
2019-02-27T07:54:08.023Z,90.30
2019-02-27T07:56:09.834Z,90.50
2019-02-27T07:58:11.565Z,88.80
2019-02-27T08:00:15.775Z,90.10
2019-02-27T08:02:17.564Z,89.30
2019-02-27T08:04:22.097Z,89.30
2019-02-27T08:06:23.638Z,88.90
2019-02-27T08:08:25.465Z,89.30
2019-02-27T08:10:27.314Z,88.70
2019-02-27T08:12:29.008Z,86.40
2019-02-27T08:14:30.695Z,86.20
2019-02-27T08:16:32.416Z,85.70
2019-02-27T08:18:37.544Z,85.80
2019-02-27T08:20:37.716Z,85.10
2019-02-27T08:22:39.628Z,84.20
2019-02-27T08:24:41.343Z,83.20
2019-02-27T08:26:43.041Z,81.20
2019-02-27T08:28:45.090Z,81.10
2019-02-27T08:30:46.776Z,80.90
2019-02-27T08:32:48.684Z,80.70
2019-02-27T08:34:53.565Z,81.00
2019-02-27T08:36:55.273Z,81.20
2019-02-27T08:38:56.964Z,81.20
2019-02-27T08:40:58.701Z,80.60
2019-02-27T08:43:00.401Z,79.00
2019-02-27T08:45:02.200Z,78.80
2019-02-27T08:47:04.300Z,78.10
2019-02-27T08:49:06.224Z,78.20
2019-02-27T08:51:08.816Z,77.10
2019-02-27T08:53:10.955Z,76.00
2019-02-27T08:55:19.991Z,75.00
2019-02-27T08:57:16.687Z,74.50
2019-02-27T08:59:18.413Z,73.60
2019-02-27T09:01:21.749Z,73.60
2019-02-27T09:03:23.694Z,72.90
2019-02-27T09:05:25.509Z,72.20
2019-02-27T09:07:27.278Z,70.10
2019-02-27T09:09:29.017Z,69.50
2019-02-27T09:11:30.772Z,70.00
2019-02-27T09:13:32.469Z,68.90
2019-02-27T09:15:34.285Z,69.50
2019-02-27T09:17:36.190Z,69.70
2019-02-27T09:19:38.249Z,68.40
2019-02-27T09:21:39.941Z,67.60
2019-02-27T09:23:41.635Z,67.60
2019-02-27T09:25:43.461Z,67.80
2019-02-27T09:27:45.246Z,67.80
2019-02-27T09:29:46.936Z,67.40
2019-02-27T09:31:50.961Z,66.40
2019-02-27T09:33:53.332Z,66.20
2019-02-27T09:35:55.732Z,66.50
2019-02-27T09:37:57.440Z,64.10
2019-02-27T09:39:59.148Z,64.70
2019-02-27T09:42:00.844Z,63.70
2019-02-27T09:44:02.538Z,61.70
2019-02-27T09:46:04.491Z,61.90
2019-02-27T09:48:06.282Z,61.90
2019-02-27T09:50:08.173Z,60.70
2019-02-27T09:52:09.972Z,60.20
2019-02-27T09:54:13.331Z,59.70
2019-02-27T09:56:15.357Z,60.00
2019-02-27T09:58:17.313Z,58.20
2019-02-27T10:00:29.103Z,58.60
2019-02-27T10:02:30.780Z,58.00
2019-02-27T10:04:32.569Z,58.70
2019-02-27T10:06:34.257Z,57.30
2019-02-27T10:08:36.073Z,57.30
2019-02-27T10:10:37.981Z,56.80
2019-02-27T10:12:39.771Z,54.40
2019-02-27T10:14:41.470Z,54.30
2019-02-27T10:16:43.298Z,54.60
2019-02-27T10:18:45.073Z,54.50
2019-02-27T10:20:46.812Z,54.20
2019-02-27T10:22:48.856Z,54.70
2019-02-27T10:24:50.861Z,53.10
2019-02-27T10:26:53.596Z,53.40
2019-02-27T10:28:55.855Z,54.30
2019-02-27T10:30:57.722Z,52.20
2019-02-27T10:32:59.443Z,52.60
2019-02-27T10:35:01.121Z,52.20
2019-02-27T10:37:03.105Z,51.10
2019-02-27T10:39:05.449Z,51.30
2019-02-27T10:41:07.236Z,50.80
2019-02-27T10:43:08.937Z,50.50
2019-02-27T10:45:10.894Z,50.00
2019-02-27T10:47:13.623Z,49.50
2019-02-27T10:49:15.425Z,49.30
2019-02-27T10:51:17.557Z,49.70
2019-02-27T10:53:19.254Z,49.40
2019-02-27T10:55:21.448Z,49.40
2019-02-27T10:57:23.121Z,49.00
2019-02-27T10:59:24.834Z,49.00
2019-02-27T11:01:26.554Z,49.10
2019-02-27T11:03:28.241Z,48.30
2019-02-27T11:05:30.804Z,47.90
2019-02-27T11:07:32.664Z,46.00
2019-02-27T11:09:34.430Z,45.90
2019-02-27T11:11:36.130Z,45.30
2019-02-27T11:18:31.446Z,43.90
2019-02-27T11:20:33.137Z,44.00
2019-02-27T11:22:34.844Z,44.10
2019-02-27T11:24:36.959Z,43.90
2019-02-27T11:26:38.845Z,42.60
2019-02-27T11:28:42.420Z,43.40
2019-02-27T11:30:44.357Z,44.00
2019-02-27T11:32:46.042Z,43.70
2019-02-27T11:34:48.457Z,42.70
2019-02-27T11:36:51.129Z,42.90
2019-02-27T11:38:52.825Z,43.00
2019-02-27T11:40:54.504Z,43.20
2019-02-27T11:42:56.488Z,43.00
2019-02-27T11:44:58.453Z,43.10
2019-02-27T11:47:00.149Z,42.60
2019-02-27T11:49:03.410Z,43.30
2019-02-27T11:51:05.238Z,42.70
2019-02-27T11:53:07.220Z,43.00
2019-02-27T11:55:10.297Z,43.80
2019-02-27T11:57:12.121Z,42.20
2019-02-27T11:59:13.813Z,42.20
2019-02-27T12:01:15.632Z,39.10
2019-02-27T12:03:17.424Z,39.90
2019-02-27T12:05:19.240Z,41.60
2019-02-27T12:07:20.937Z,40.50
2019-02-27T12:09:23.125Z,41.00
2019-02-27T12:11:24.938Z,40.90
2019-02-27T12:13:26.628Z,41.80
2019-02-27T12:15:28.413Z,40.40
2019-02-27T12:17:30.163Z,40.60
2019-02-27T12:19:31.949Z,41.60
2019-02-27T12:21:33.640Z,41.80
2019-02-27T12:23:35.441Z,42.00
2019-02-27T12:25:37.426Z,40.60
2019-02-27T12:27:49.037Z,41.60
2019-02-27T12:29:43.048Z,42.70
2019-02-27T12:31:48.076Z,43.60
2019-02-27T12:33:48.725Z,42.40
2019-02-27T12:35:50.518Z,42.40
2019-02-27T12:37:52.220Z,43.30
2019-02-27T12:39:53.905Z,42.20
2019-02-27T12:41:55.614Z,42.00
2019-02-27T12:43:57.306Z,41.50
2019-02-27T12:46:00.985Z,39.30
2019-02-27T12:48:02.740Z,39.70
2019-02-27T12:50:05.325Z,38.80
2019-02-27T12:52:09.018Z,38.50
2019-02-27T12:54:10.704Z,39.20
2019-02-27T12:56:12.397Z,37.20
2019-02-27T12:58:14.086Z,36.70
2019-02-27T13:00:18.207Z,37.30
2019-02-27T13:02:25.885Z,37.70
2019-02-27T13:04:23.471Z,37.90
2019-02-27T13:06:25.585Z,37.90
2019-02-27T13:08:27.270Z,37.20
2019-02-27T13:10:33.155Z,37.20
2019-02-27T13:12:32.697Z,37.50
2019-02-27T13:14:34.387Z,36.20
2019-02-27T13:16:36.173Z,36.10
2019-02-27T13:18:37.893Z,37.40
2019-02-27T13:20:39.577Z,36.40
2019-02-27T13:22:41.392Z,35.90
2019-02-27T13:24:43.120Z,35.80
2019-02-27T13:26:44.801Z,35.90
2019-02-27T13:28:48.762Z,33.80
2019-02-27T13:30:50.385Z,33.90
2019-02-27T13:32:52.208Z,33.40
2019-02-27T13:34:53.918Z,33.20
2019-02-27T13:36:55.617Z,34.20
2019-02-27T13:38:59.323Z,33.60
2019-02-27T13:41:02.528Z,34.40
2019-02-27T13:43:04.465Z,32.60
2019-02-27T13:45:12.642Z,32.00
2019-02-27T13:47:12.354Z,32.40
2019-02-27T13:49:14.653Z,33.10
2019-02-27T13:51:16.485Z,31.80
2019-02-27T13:53:18.185Z,31.30
2019-02-27T13:55:20.112Z,31.00
2019-02-27T13:57:24.835Z,32.40
2019-02-27T13:59:25.513Z,32.60
2019-02-27T14:01:28.482Z,31.70
2019-02-27T14:03:31.050Z,31.10
2019-02-27T14:05:36.054Z,32.30
2019-02-27T14:07:36.540Z,31.30
2019-02-27T14:09:39.128Z,31.30
2019-02-27T14:11:42.005Z,32.60
2019-02-27T14:13:44.867Z,31.50
2019-02-27T14:15:46.841Z,31.90
2019-02-27T14:17:48.622Z,32.10
2019-02-27T14:19:50.428Z,32.60
2019-02-27T14:21:52.141Z,32.70
2019-02-27T14:23:53.822Z,30.90
2019-02-27T14:25:55.537Z,31.80
2019-02-27T14:27:57.325Z,31.90
2019-02-27T14:30:03.311Z,31.10
2019-02-27T14:32:02.720Z,31.00
2019-02-27T14:34:04.449Z,31.70
2019-02-27T14:36:08.493Z,32.00
2019-02-27T14:38:10.209Z,32.10
2019-02-27T14:40:13.614Z,32.40
2019-02-27T14:42:15.311Z,32.70
2019-02-27T14:44:17.016Z,33.40
2019-02-27T14:46:18.928Z,32.80
2019-02-27T14:48:21.502Z,33.60
2019-02-27T14:50:24.529Z,31.70
2019-02-27T14:52:26.217Z,31.30
2019-02-27T14:54:29.174Z,31.50
2019-02-27T14:56:31.604Z,32.20
2019-02-27T14:58:33.333Z,32.10
2019-02-27T15:00:39.659Z,32.80
2019-02-27T15:02:39.341Z,33.00
2019-02-27T15:04:41.134Z,33.20
2019-02-27T15:06:42.834Z,33.50
2019-02-27T15:08:44.641Z,33.80
2019-02-27T15:10:46.436Z,33.60
2019-02-27T15:12:48.136Z,33.50
2019-02-27T15:14:49.851Z,33.20
2019-02-27T15:16:51.537Z,33.60
2019-02-27T15:18:55.815Z,32.90
2019-02-27T15:20:56.857Z,33.30
2019-02-27T15:22:58.793Z,33.80
2019-02-27T15:25:00.490Z,33.90
2019-02-27T15:27:02.288Z,33.40
2019-02-27T15:29:05.683Z,33.30
2019-02-27T15:31:07.626Z,33.20
2019-02-27T15:33:09.343Z,33.90
2019-02-27T15:35:12.145Z,32.90
2019-02-27T15:37:13.840Z,33.40
2019-02-27T15:39:20.287Z,33.80
2019-02-27T15:41:19.342Z,34.30
2019-02-27T15:43:21.158Z,34.60
2019-02-27T15:45:23.099Z,35.10
2019-02-27T15:47:27.060Z,35.70
2019-02-27T15:49:28.373Z,35.80
2019-02-27T15:51:32.341Z,36.20
2019-02-27T15:53:33.952Z,36.60
2019-02-27T15:55:37.808Z,37.30
2019-02-27T15:57:39.728Z,37.00
2019-02-27T15:59:41.923Z,36.80
2019-02-27T16:01:43.901Z,37.10
2019-02-27T16:03:46.638Z,38.30
2019-02-27T16:05:48.514Z,39.20
2019-02-27T16:07:50.807Z,40.10
2019-02-27T16:09:52.745Z,39.70
2019-02-27T16:11:54.437Z,39.30
2019-02-27T16:13:56.372Z,39.70
2019-02-27T16:15:58.086Z,39.40
2019-02-27T16:18:04.377Z,39.30
2019-02-27T16:20:05.589Z,40.10
2019-02-27T16:22:07.581Z,40.30
2019-02-27T16:24:09.662Z,40.20
2019-02-27T16:26:11.970Z,40.60
2019-02-27T16:28:16.356Z,40.90
2019-02-27T16:30:22.201Z,41.80
2019-02-27T16:32:23.879Z,42.40
2019-02-27T16:34:25.608Z,42.90
2019-02-27T16:36:36.048Z,43.10
2019-02-27T16:38:31.605Z,43.50
2019-02-27T16:40:34.971Z,43.80
2019-02-27T16:42:39.092Z,44.10
2019-02-27T16:44:40.613Z,44.40
2019-02-27T16:46:44.712Z,44.70
2019-02-27T16:48:46.005Z,45.20
2019-02-27T16:50:48.308Z,46.00
2019-02-27T16:52:50.277Z,46.70
2019-02-27T16:54:51.968Z,47.30
2019-02-27T16:56:53.681Z,47.60
2019-02-27T16:58:55.665Z,48.10
2019-02-27T17:00:57.452Z,48.30
2019-02-27T17:02:59.245Z,48.50
2019-02-27T17:05:01.041Z,48.90
2019-02-27T17:07:02.929Z,49.20
2019-02-27T17:09:09.613Z,49.50
2019-02-27T17:11:08.688Z,49.70
2019-02-27T17:13:14.553Z,50.00
2019-02-27T17:15:14.299Z,50.40
2019-02-27T17:17:16.178Z,50.70
2019-02-27T17:19:19.643Z,50.80
2019-02-27T17:21:22.684Z,51.10
2019-02-27T17:23:25.303Z,51.30
2019-02-27T17:25:29.947Z,51.50
2019-02-27T17:27:30.871Z,51.70
2019-02-27T17:29:32.589Z,51.80
2019-02-27T17:31:35.533Z,51.90
2019-02-27T17:33:38.003Z,52.20
2019-02-27T17:35:40.411Z,52.40
2019-02-27T17:37:42.257Z,52.90
2019-02-27T17:39:45.431Z,53.20
2019-02-27T17:41:47.244Z,53.70
2019-02-27T17:43:51.592Z,53.90
2019-02-27T17:45:54.470Z,54.10
2019-02-27T17:47:56.318Z,54.60
2019-02-27T17:49:58.262Z,55.00
2019-02-27T17:52:00.275Z,55.10
2019-02-27T17:54:02.079Z,55.40
2019-02-27T17:56:03.889Z,55.80
2019-02-27T17:58:05.604Z,56.00
2019-02-27T18:00:16.813Z,56.20
2019-02-27T18:02:18.568Z,56.50
2019-02-27T18:04:20.394Z,56.80
2019-02-27T18:06:22.379Z,57.00
2019-02-27T18:08:24.074Z,57.20
2019-02-27T18:10:25.794Z,57.40
2019-02-27T18:12:27.633Z,57.50
2019-02-27T18:14:29.522Z,57.70
2019-02-27T18:16:31.344Z,57.80
2019-02-27T18:18:33.148Z,57.90
2019-02-27T18:20:35.057Z,58.00
2019-02-27T18:22:36.765Z,58.10
2019-02-27T18:24:38.562Z,58.30
2019-02-27T18:26:40.275Z,58.60
2019-02-27T18:28:42.009Z,58.80
2019-02-27T18:30:43.840Z,58.90
2019-02-27T18:32:45.625Z,59.10
2019-02-27T18:34:47.668Z,59.30
2019-02-27T18:36:51.197Z,59.40
2019-02-27T18:38:53.214Z,59.60
2019-02-27T18:40:54.952Z,59.90
2019-02-27T18:42:57.240Z,60.20
2019-02-27T18:44:58.961Z,60.60
2019-02-27T18:47:02.401Z,61.00
2019-02-27T18:49:04.477Z,61.40
2019-02-27T18:51:06.172Z,61.60
2019-02-27T18:53:12.946Z,62.00
2019-02-27T18:55:12.153Z,62.30
2019-02-27T18:57:13.937Z,62.80
2019-02-27T18:59:15.649Z,63.10
2019-02-27T19:01:17.781Z,63.50
2019-02-27T19:03:19.580Z,63.80
2019-02-27T19:05:21.681Z,64.00
2019-02-27T19:07:23.470Z,64.70
2019-02-27T19:09:25.176Z,65.00
2019-02-27T19:11:27.305Z,65.10
2019-02-27T19:13:31.707Z,65.40
2019-02-27T19:15:32.952Z,65.60
2019-02-27T19:17:34.933Z,65.70
2019-02-27T19:19:36.935Z,65.90
2019-02-27T19:21:38.740Z,66.10
2019-02-27T19:23:41.019Z,66.20
2019-02-27T19:26:02.509Z,66.40
2019-02-27T19:28:04.814Z,66.80
2019-02-27T19:30:08.846Z,67.10
2019-02-27T19:32:11.476Z,67.40
2019-02-27T19:34:13.290Z,67.60
2019-02-27T19:36:19.110Z,67.80
2019-02-27T19:38:18.688Z,67.90
2019-02-27T19:40:21.005Z,68.10
2019-02-27T19:42:22.940Z,68.40
2019-02-27T19:44:28.552Z,68.60
2019-02-27T19:46:28.656Z,68.90
2019-02-27T19:48:30.388Z,69.20
2019-02-27T19:50:32.209Z,69.30
2019-02-27T19:52:34.016Z,69.60
2019-02-27T19:54:55.357Z,69.80
2019-02-27T19:56:57.168Z,70.20
2019-02-27T19:58:59.201Z,70.40
2019-02-27T20:01:00.916Z,70.70
2019-02-27T20:03:02.829Z,71.00
2019-02-27T20:05:05.637Z,71.20
2019-02-27T20:07:07.520Z,71.50
2019-02-27T20:09:09.428Z,71.80
2019-02-27T20:11:11.337Z,72.00
2019-02-27T20:13:13.381Z,72.30
2019-02-27T20:15:15.605Z,72.70
2019-02-27T20:17:17.309Z,72.90
2019-02-27T20:19:22.275Z,73.10
2019-02-27T20:21:23.147Z,73.40
2019-02-27T20:23:25.759Z,73.80
2019-02-27T20:25:28.846Z,74.10
2019-02-27T20:27:30.729Z,74.40
2019-02-27T20:29:32.607Z,74.60
2019-02-27T20:31:34.574Z,75.00
2019-02-27T20:33:37.328Z,75.10
2019-02-27T20:35:39.892Z,75.40
2019-02-27T20:37:41.818Z,75.60
2019-02-27T20:39:43.614Z,75.90
2019-02-27T20:41:45.447Z,76.20
2019-02-27T20:43:47.256Z,76.40
2019-02-27T20:45:49.133Z,76.70
2019-02-27T20:47:51.081Z,77.00
2019-02-27T20:49:52.957Z,77.00
2019-02-27T20:51:54.740Z,77.20
2019-02-27T20:53:56.591Z,77.20
2019-02-27T20:55:58.666Z,77.40
2019-02-27T20:58:00.497Z,77.60
2019-02-27T21:00:02.916Z,77.60
2019-02-27T21:02:04.733Z,77.80
2019-02-27T21:04:06.567Z,78.10
2019-02-27T21:06:08.300Z,78.30
2019-02-27T21:08:10.005Z,78.60
2019-02-27T21:10:19.921Z,78.90
2019-02-27T21:12:17.934Z,79.10
2019-02-27T21:14:20.536Z,79.40
2019-02-27T21:16:23.521Z,79.50
2019-02-27T21:18:25.409Z,79.90
2019-02-27T21:20:27.392Z,80.20
2019-02-27T21:22:29.114Z,80.50
2019-02-27T21:24:30.912Z,80.70
2019-02-27T21:26:32.726Z,80.90
2019-02-27T21:28:34.424Z,81.20
2019-02-27T21:30:36.239Z,81.20
2019-02-27T21:32:38.073Z,81.50
2019-02-27T21:34:39.889Z,81.80
2019-02-27T21:36:41.722Z,81.80
2019-02-27T21:38:43.492Z,81.90
2019-02-27T21:40:45.215Z,82.10
2019-02-27T21:42:47.000Z,82.40
2019-02-27T21:44:48.712Z,82.50
2019-02-27T21:46:50.479Z,82.70
2019-02-27T21:48:52.220Z,82.90
2019-02-27T21:50:53.944Z,83.00
2019-02-27T21:52:55.914Z,83.20
2019-02-27T21:54:58.053Z,83.10
2019-02-27T21:56:59.934Z,83.10
2019-02-27T21:59:04.757Z,83.30
2019-02-27T22:01:05.442Z,83.30
2019-02-27T22:03:07.285Z,83.20
2019-02-27T22:05:09.285Z,83.00
2019-02-27T22:07:11.005Z,83.10
2019-02-27T22:09:13.616Z,83.30
2019-02-27T22:11:16.254Z,83.40
2019-02-27T22:13:28.620Z,83.60
2019-02-27T22:15:23.928Z,83.90
2019-02-27T22:17:25.634Z,83.90
2019-02-27T22:19:27.331Z,84.20
2019-02-27T22:21:31.351Z,84.50
2019-02-27T22:23:32.766Z,84.70
2019-02-27T22:25:34.477Z,85.00
2019-02-27T22:27:36.196Z,85.30
2019-02-27T22:29:37.892Z,85.50
2019-02-27T22:31:40.601Z,85.80
2019-02-27T22:33:43.397Z,86.00
2019-02-27T22:35:45.090Z,85.90
2019-02-27T22:37:51.082Z,86.10
2019-02-27T22:39:50.794Z,86.20
2019-02-27T22:41:52.490Z,86.40
2019-02-27T22:43:55.722Z,86.40
2019-02-27T22:45:57.937Z,86.90
2019-02-27T22:47:59.640Z,87.20
2019-02-27T22:50:05.863Z,87.50
2019-02-27T22:52:05.111Z,87.80
2019-02-27T22:54:06.905Z,88.30
2019-02-27T22:56:08.612Z,88.40
2019-02-27T22:58:10.516Z,88.70
2019-02-27T23:00:28.717Z,89.20
2019-02-27T23:02:30.693Z,89.40
2019-02-27T23:04:33.196Z,90.00
2019-02-27T23:06:35.092Z,90.50
2019-02-27T23:08:37.005Z,91.30
2019-02-27T23:10:38.842Z,91.70
2019-02-27T23:12:40.548Z,92.60
2019-02-27T23:14:45.077Z,93.00
2019-02-27T23:16:47.229Z,93.30
2019-02-27T23:18:49.033Z,93.90
2019-02-27T23:20:52.476Z,94.10
2019-02-27T23:22:54.451Z,94.40
2019-02-27T23:25:05.180Z,94.50
2019-02-27T23:27:06.873Z,94.80
2019-02-27T23:29:08.969Z,95.60
2019-02-27T23:31:10.683Z,96.00
2019-02-27T23:33:12.601Z,96.40
2019-02-27T23:35:16.739Z,97.30
2019-02-27T23:37:17.916Z,98.00
2019-02-27T23:39:19.838Z,98.30
2019-02-27T23:41:23.213Z,98.30
2019-02-27T23:43:25.372Z,98.30
2019-02-27T23:45:27.096Z,98.30
2019-02-27T23:47:29.348Z,98.30
2019-02-27T23:49:31.105Z,98.30
2019-02-27T23:51:33.020Z,98.30
2019-02-27T23:53:34.813Z,98.30
2019-02-27T23:55:36.709Z,98.30
2019-02-27T23:57:38.416Z,98.30
2019-02-27T23:59:40.271Z,98.30
